Time;durP1;ratioP1;P1;durP2;ratioP2;P2;SDS_P1;SDS_P2;PMS_P1;PMS_P2;Temp;Humidity;BMP_temperature;BMP_pressure;BME280_temperature;BME280_humidity;BME280_pressure;Samples;Min_cycle;Max_cycle;Signal;HPM_P1;HPM_P2
2023/06/23 00:00:11;;;;;;;3.20;2.90;;;;;;;22.50;62.66;99151.38;7199435;40;20397;31
2023/06/23 00:05:30;;;;;;;4.28;3.65;;;;;;;22.37;63.68;99157.16;7247623;40;20347;31
2023/06/23 00:10:48;;;;;;;3.54;3.24;;;;;;;22.37;64.32;99149.78;7240273;40;20392;31
2023/06/23 00:16:22;;;;;;;3.42;3.12;;;;;;;22.07;67.61;99140.91;7221027;40;20256;31
2023/06/23 00:21:57;;;;;;;3.80;3.40;;;;;;;21.98;68.32;99142.34;7256406;40;20256;31
2023/06/23 00:27:32;;;;;;;3.90;3.50;;;;;;;21.74;69.18;99171.69;7288980;40;20372;31
2023/06/23 00:33:07;;;;;;;3.70;3.08;;;;;;;21.64;69.13;99170.59;7265958;40;20266;31
2023/06/23 00:43:50;;;;;;;4.70;4.20;;;;;;;21.45;69.95;99178.97;7245250;40;20288;31
2023/06/23 00:54:28;;;;;;;4.20;3.80;;;;;;;21.47;70.20;99215.22;7285013;40;20275;31
2023/06/23 01:04:52;;;;;;;5.18;4.50;;;;;;;21.64;68.27;99296.81;7297363;39;20272;31
2023/06/23 01:15:33;;;;;;;5.78;5.18;;;;;;;21.75;68.39;99316.06;7296819;39;20383;31
2023/06/23 01:26:12;;;;;;;6.60;5.93;;;;;;;21.68;68.37;99314.47;7309370;39;20286;31
2023/06/23 01:36:54;;;;;;;7.73;6.93;;;;;;;21.68;67.64;99300.75;7279605;40;20269;31
2023/06/23 01:42:28;;;;;;;7.70;6.50;;;;;;;21.52;68.11;99316.84;7218380;40;20317;31
2023/06/23 01:48:03;;;;;;;7.90;6.70;;;;;;;21.63;68.36;99328.09;7241812;40;20241;31
2023/06/23 01:53:40;;;;;;;7.45;6.65;;;;;;;21.60;68.79;99337.59;7187290;40;20269;31
2023/06/23 01:59:16;;;;;;;7.87;7.07;;;;;;;21.65;68.21;99324.03;7168522;40;20418;31
2023/06/23 02:04:51;;;;;;;7.50;6.70;;;;;;;21.57;67.66;99316.13;7200823;40;20262;31
2023/06/23 02:10:27;;;;;;;8.15;7.35;;;;;;;21.48;68.77;99301.06;7218001;40;20268;31
2023/06/23 02:16:01;;;;;;;9.27;7.90;;;;;;;21.41;68.10;99286.63;7234493;40;20257;31
2023/06/23 02:21:36;;;;;;;10.75;9.00;;;;;;;21.42;68.77;99288.28;7240060;40;20353;31
2023/06/23 02:27:13;;;;;;;9.65;7.43;;;;;;;21.35;69.27;99299.37;7298964;39;20310;31
2023/06/23 02:32:48;;;;;;;9.13;8.20;;;;;;;21.32;68.64;99319.03;7225363;40;20278;31
2023/06/23 02:38:24;;;;;;;11.40;9.25;;;;;;;21.32;68.08;99321.78;7180873;40;20407;31
2023/06/23 02:49:03;;;;;;;12.80;10.68;;;;;;;21.21;69.32;99332.69;7229985;40;20485;31
2023/06/23 02:59:43;;;;;;;13.13;11.40;;;;;;;21.01;69.14;99350.22;7254217;39;20256;31
2023/06/23 03:05:21;;;;;;;13.05;11.75;;;;;;;20.96;69.89;99366.50;7277046;39;20268;31
2023/06/23 03:10:56;;;;;;;14.80;12.27;;;;;;;20.94;69.97;99382.34;7281315;39;20276;31
2023/06/23 03:16:31;;;;;;;15.80;14.13;;;;;;;20.96;69.62;99391.19;7277946;40;20234;31
2023/06/23 03:22:05;;;;;;;15.73;13.85;;;;;;;20.98;70.19;99393.66;7225307;40;20362;31
2023/06/23 03:27:40;;;;;;;18.45;15.15;;;;;;;20.93;69.65;99407.25;7234720;40;20613;31
2023/06/23 03:38:20;;;;;;;19.14;16.78;;;;;;;20.92;69.77;99402.84;7204905;40;20262;31
2023/06/23 03:43:55;;;;;;;19.10;17.05;;;;;;;20.93;69.97;99421.75;7221495;40;20346;31
2023/06/23 03:49:30;;;;;;;20.90;18.40;;;;;;;20.94;69.12;99431.66;7255780;40;20256;31
2023/06/23 03:55:04;;;;;;;21.62;17.70;;;;;;;20.94;70.54;99450.84;7211821;40;20429;31
2023/06/23 04:00:39;;;;;;;24.35;20.95;;;;;;;20.97;70.54;99453.16;7220280;40;20324;31
2023/06/23 04:06:15;;;;;;;23.80;20.73;;;;;;;20.96;69.98;99451.47;7183618;40;20266;31
2023/06/23 04:11:52;;;;;;;23.60;20.65;;;;;;;20.97;70.37;99463.28;7180083;40;20246;31
2023/06/23 04:17:27;;;;;;;25.80;19.97;;;;;;;21.06;69.19;99468.22;7199875;40;20261;31
2023/06/23 04:23:02;;;;;;;22.98;20.48;;;;;;;21.10;69.15;99482.34;7221787;40;20348;31
2023/06/23 04:28:39;;;;;;;26.67;22.50;;;;;;;21.09;69.41;99486.12;7249829;40;21507;31
2023/06/23 04:34:14;;;;;;;22.80;20.45;;;;;;;21.07;68.88;99499.22;7261772;39;20272;31
2023/06/23 04:39:52;;;;;;;26.95;22.30;;;;;;;21.05;69.17;99506.84;7247056;40;20248;31
2023/06/23 04:45:30;;;;;;;24.65;21.87;;;;;;;21.18;69.62;99511.38;7225658;40;20330;31
2023/06/23 04:51:06;;;;;;;24.60;20.70;;;;;;;21.12;69.63;99516.69;7249823;40;20318;31
2023/06/23 04:56:41;;;;;;;26.00;22.40;;;;;;;21.08;69.11;99522.81;7198604;40;20381;31
2023/06/23 05:02:15;;;;;;;25.50;22.00;;;;;;;21.06;69.59;99539.50;7210352;40;20355;31
2023/06/23 05:07:50;;;;;;;24.95;22.20;;;;;;;20.98;68.86;99536.19;7157230;40;20377;31
2023/06/23 05:13:26;;;;;;;23.67;20.95;;;;;;;21.01;68.18;99552.22;7190886;40;20269;31
2023/06/23 05:19:02;;;;;;;26.90;23.30;;;;;;;21.04;68.58;99551.75;7217526;40;20246;31
2023/06/23 05:24:38;;;;;;;25.05;19.50;;;;;;;21.08;68.78;99562.03;7230219;40;20351;31
2023/06/23 05:30:13;;;;;;;23.17;20.00;;;;;;;21.17;68.26;99564.53;7226390;40;20257;31
2023/06/23 05:35:51;;;;;;;24.15;21.33;;;;;;;21.19;67.82;99573.38;7239905;40;20241;31
2023/06/23 05:41:26;;;;;;;23.80;21.10;;;;;;;21.12;67.86;99595.31;7258055;40;20324;31
2023/06/23 05:47:01;;;;;;;22.75;20.17;;;;;;;21.10;68.55;99597.47;7237772;40;20278;31
2023/06/23 05:52:35;;;;;;;25.60;20.85;;;;;;;21.07;68.31;99603.38;7282731;39;20309;31
2023/06/23 05:58:10;;;;;;;25.45;20.37;;;;;;;21.00;68.11;99608.94;7239932;40;20448;31
2023/06/23 06:03:45;;;;;;;23.80;19.00;;;;;;;21.08;68.06;99599.59;7185633;40;20247;31
2023/06/23 06:09:22;;;;;;;23.73;19.10;;;;;;;21.06;67.95;99609.94;7199569;40;20253;31
2023/06/23 06:14:54;;;;;;;22.30;17.90;;;;;;;21.13;66.82;99605.25;6937254;40;21199;31
2023/06/23 06:20:29;;;;;;;21.65;16.15;;;;;;;21.47;66.17;99625.81;7136053;40;20254;31
2023/06/23 06:26:06;;;;;;;22.25;16.67;;;;;;;21.74;65.77;99624.47;7138810;40;20276;31
2023/06/23 06:31:41;;;;;;;19.00;15.90;;;;;;;21.92;65.43;99632.75;7180191;40;20247;31
2023/06/23 06:37:16;;;;;;;16.60;13.90;;;;;;;22.06;64.85;99636.16;7268466;39;20292;31
2023/06/23 06:42:53;;;;;;;17.05;14.30;;;;;;;22.30;64.04;99654.44;7300393;39;20241;31
2023/06/23 06:48:28;;;;;;;15.85;13.05;;;;;;;22.44;62.92;99660.59;7229559;40;20242;31
2023/06/23 06:54:03;;;;;;;15.90;12.90;;;;;;;22.62;63.01;99668.81;7220218;40;20258;31
2023/06/23 06:59:39;;;;;;;15.00;13.40;;;;;;;22.68;61.95;99659.63;7253908;40;20440;31
2023/06/23 07:05:16;;;;;;;16.50;14.10;;;;;;;22.48;61.96;99673.63;7282477;40;20259;31
2023/06/23 07:10:47;;;;;;;14.48;12.05;;;;;;;22.62;62.20;99684.44;7286827;39;20252;31
2023/06/23 07:16:23;;;;;;;14.70;12.10;;;;;;;22.83;61.20;99700.44;7198547;40;20349;31
2023/06/23 07:21:58;;;;;;;13.25;11.00;;;;;;;23.07;60.95;99687.63;7225880;40;20253;31
2023/06/23 07:27:33;;;;;;;14.38;11.25;;;;;;;23.27;59.74;99693.63;7216421;40;20281;31
2023/06/23 07:38:11;;;;;;;10.15;9.05;;;;;;;23.78;58.62;99701.25;7278398;40;20373;31
2023/06/23 07:43:46;;;;;;;12.67;9.20;;;;;;;23.95;58.80;99698.59;7273324;40;20256;31
2023/06/23 07:49:06;;;;;;;12.23;10.30;;;;;;;24.19;57.91;99725.06;7226822;40;20409;31
2023/06/23 07:54:43;;;;;;;11.45;9.60;;;;;;;24.36;56.82;99722.38;7263612;40;20415;31
2023/06/23 08:00:04;;;;;;;10.02;9.00;;;;;;;24.47;54.75;99730.66;7276753;39;20260;31
2023/06/23 08:05:39;;;;;;;10.13;7.68;;;;;;;24.34;54.23;99727.31;7287132;39;20245;31
2023/06/23 08:11:15;;;;;;;10.60;7.30;;;;;;;24.64;56.49;99722.44;7279451;40;20373;31
2023/06/23 08:16:35;;;;;;;9.57;8.57;;;;;;;24.84;54.71;99735.78;7207103;40;20258;31
2023/06/23 08:22:08;;;;;;;9.95;7.00;;;;;;;24.77;53.52;99733.19;7225376;40;20257;31
2023/06/23 08:27:44;;;;;;;8.05;6.10;;;;;;;24.92;53.34;99739.03;7190276;40;20281;31
2023/06/23 08:38:12;;;;;;;6.15;5.55;;;;;;;25.24;52.12;99753.12;7224968;40;20292;31
2023/06/23 08:43:45;;;;;;;5.65;5.15;;;;;;;25.33;50.59;99746.12;7262522;40;20257;31
2023/06/23 08:49:20;;;;;;;7.84;5.20;;;;;;;25.42;51.08;99768.62;7324750;39;20251;31
2023/06/23 08:54:55;;;;;;;9.67;4.97;;;;;;;25.52;50.12;99772.41;7277785;40;20339;31
2023/06/23 09:00:32;;;;;;;6.32;4.32;;;;;;;25.73;49.73;99768.09;7269176;40;21220;31
2023/06/23 09:06:07;;;;;;;6.15;4.15;;;;;;;26.00;48.10;99779.31;7286776;40;20322;31
2023/06/23 09:11:42;;;;;;;4.65;4.25;;;;;;;25.94;49.02;99781.16;7229013;40;20239;31
2023/06/23 09:17:16;;;;;;;5.06;4.54;;;;;;;25.60;48.76;99800.72;7211192;40;20258;31
2023/06/23 09:22:48;;;;;;;4.95;4.00;;;;;;;25.82;48.29;99799.75;7168564;40;20334;31
2023/06/23 09:33:28;;;;;;;4.88;3.78;;;;;;;26.30;46.33;99806.59;7168456;40;20465;31
2023/06/23 09:39:03;;;;;;;4.70;3.75;;;;;;;26.47;47.01;99801.84;7241062;40;20269;31
2023/06/23 09:44:38;;;;;;;4.00;3.60;;;;;;;26.75;45.20;99803.63;7238114;40;21462;31
2023/06/23 09:50:14;;;;;;;5.36;3.94;;;;;;;26.65;44.85;99820.09;7237156;40;20282;31
2023/06/23 09:55:34;;;;;;;4.28;3.80;;;;;;;26.42;46.68;99818.37;7189401;40;20279;31
2023/06/23 10:01:15;;;;;;;3.67;3.20;;;;;;;26.90;44.94;99809.38;7164293;40;20269;31
2023/06/23 10:06:50;;;;;;;4.12;3.50;;;;;;;27.25;43.38;99808.97;7238757;39;20252;31
2023/06/23 10:12:26;;;;;;;4.62;3.95;;;;;;;26.87;45.13;99824.56;7259646;40;20322;31
2023/06/23 10:18:00;;;;;;;4.48;3.12;;;;;;;27.28;45.01;99822.28;7280506;39;20256;31
2023/06/23 10:23:36;;;;;;;5.55;3.15;;;;;;;27.52;42.53;99820.91;7288102;39;21342;31
2023/06/23 10:34:17;;;;;;;3.10;2.80;;;;;;;27.31;41.93;99810.69;7234460;40;20299;31
2023/06/23 10:39:52;;;;;;;3.65;3.20;;;;;;;27.06;43.42;99815.94;7207662;40;20247;31
2023/06/23 10:45:27;;;;;;;3.92;3.05;;;;;;;27.11;43.49;99816.84;7193347;40;20321;31
2023/06/23 10:51:02;;;;;;;4.73;3.30;;;;;;;27.18;43.03;99822.16;7216468;40;20276;31
2023/06/23 10:56:45;;;;;;;3.33;2.62;;;;;;;27.38;39.26;99821.56;7217601;40;20325;31
2023/06/23 11:02:23;;;;;;;4.20;2.80;;;;;;;27.68;40.78;99821.91;7199608;40;21272;31
2023/06/23 11:13:04;;;;;;;4.30;2.80;;;;;;;27.40;40.68;99824.88;7241667;40;20289;31
2023/06/23 11:18:38;;;;;;;3.50;2.60;;;;;;;27.83;40.87;99823.94;7255945;40;20387;31
2023/06/23 11:29:19;;;;;;;2.95;2.60;;;;;;;28.28;38.37;99817.97;7271957;40;20277;31
2023/06/23 11:35:04;;;;;;;2.55;2.30;;;;;;;28.42;38.64;99817.22;7252328;40;20261;31
2023/06/23 11:40:35;;;;;;;4.47;2.58;;;;;;;27.89;37.80;99836.75;7266066;40;20249;31
2023/06/23 11:46:11;;;;;;;3.05;2.50;;;;;;;27.91;38.46;99824.28;7236115;40;20256;31
2023/06/23 11:51:47;;;;;;;6.23;3.13;;;;;;;28.40;39.05;99826.91;7188713;40;20246;31
2023/06/23 11:57:21;;;;;;;2.97;2.62;;;;;;;28.65;37.70;99819.56;7172901;40;20277;31
2023/06/23 12:02:57;;;;;;;7.56;2.98;;;;;;;28.67;36.91;99820.13;7203023;40;20332;31
2023/06/23 12:08:32;;;;;;;2.72;2.50;;;;;;;28.84;38.04;99806.09;7278530;40;20248;31
2023/06/23 12:14:08;;;;;;;3.20;2.80;;;;;;;27.79;38.12;99820.88;7262322;40;20320;31
2023/06/23 12:19:44;;;;;;;2.42;2.22;;;;;;;27.71;37.87;99815.81;7255528;40;20292;31
2023/06/23 12:25:18;;;;;;;3.33;2.43;;;;;;;27.76;39.08;99822.25;7247395;40;20285;31
2023/06/23 12:30:54;;;;;;;4.70;3.60;;;;;;;28.10;37.96;99816.44;7288921;39;20384;31
2023/06/23 12:36:31;;;;;;;3.65;2.80;;;;;;;28.72;37.06;99805.50;7248737;40;20423;31
2023/06/23 12:42:01;;;;;;;4.37;2.70;;;;;;;28.44;37.29;99809.47;7020923;40;21227;31
2023/06/23 12:47:36;;;;;;;2.74;2.42;;;;;;;28.46;36.71;99804.50;7220767;40;20401;31
2023/06/23 12:53:12;;;;;;;2.87;2.40;;;;;;;28.47;36.65;99803.41;7223268;40;20276;31
2023/06/23 12:58:43;;;;;;;2.50;2.30;;;;;;;28.81;36.61;99783.59;7230832;40;20235;31
2023/06/23 13:04:04;;;;;;;3.63;2.37;;;;;;;28.64;36.07;99795.72;7218070;40;20437;31
2023/06/23 13:09:41;;;;;;;2.65;2.20;;;;;;;28.63;34.29;99802.37;7227050;40;20351;31
2023/06/23 13:15:16;;;;;;;4.25;2.70;;;;;;;29.10;34.24;99805.06;7266311;40;20257;31
2023/06/23 13:20:51;;;;;;;3.95;2.35;;;;;;;29.37;34.19;99799.34;7275363;40;20236;31
2023/06/23 13:26:25;;;;;;;2.85;2.35;;;;;;;29.15;34.64;99797.88;7268083;40;20249;31
2023/06/23 13:31:45;;;;;;;3.17;2.60;;;;;;;28.99;34.50;99791.44;7238654;40;20285;31
2023/06/23 13:37:22;;;;;;;3.05;2.50;;;;;;;28.82;32.59;99796.38;7236894;40;20377;31
2023/06/23 13:42:53;;;;;;;2.70;2.30;;;;;;;29.02;34.61;99797.28;7179348;40;20251;31
2023/06/23 13:48:28;;;;;;;2.90;2.34;;;;;;;29.27;32.85;99796.50;7213699;40;20253;31
2023/06/23 13:53:48;;;;;;;2.50;2.10;;;;;;;29.23;32.86;99792.63;7227815;40;20320;31
2023/06/23 13:59:25;;;;;;;2.62;2.28;;;;;;;29.08;33.11;99785.09;7235862;40;20257;31
2023/06/23 14:04:45;;;;;;;5.52;2.32;;;;;;;28.76;33.29;99791.91;7243529;40;20277;31
2023/06/23 14:10:06;;;;;;;3.70;2.62;;;;;;;28.84;34.64;99799.69;7249966;40;20254;31
2023/06/23 14:15:42;;;;;;;2.30;2.10;;;;;;;29.11;32.52;99794.81;7299135;39;20264;31
2023/06/23 14:21:15;;;;;;;2.90;2.25;;;;;;;28.91;32.57;99794.75;7260458;40;20346;31
2023/06/23 14:26:35;;;;;;;4.36;2.30;;;;;;;29.27;32.25;99795.69;7197755;40;20324;31
2023/06/23 14:32:11;;;;;;;2.50;2.05;;;;;;;29.36;32.65;99786.56;7215960;40;20253;31
2023/06/23 14:37:45;;;;;;;2.40;2.10;;;;;;;29.46;32.05;99797.69;7202746;40;20265;31
2023/06/23 14:43:20;;;;;;;2.60;2.20;;;;;;;29.14;33.95;99799.81;7237390;40;20251;31
2023/06/23 14:48:54;;;;;;;3.12;2.33;;;;;;;28.58;33.16;99805.09;7186722;40;20267;31
2023/06/23 14:54:30;;;;;;;3.92;2.50;;;;;;;28.56;34.00;99812.03;7171323;40;20258;31
2023/06/23 14:59:50;;;;;;;2.55;2.05;;;;;;;28.54;32.41;99814.25;7207757;40;20242;31
2023/06/23 15:05:27;;;;;;;2.40;2.17;;;;;;;28.70;33.93;99809.63;7215940;40;20245;31
2023/06/23 15:11:02;;;;;;;3.47;2.12;;;;;;;28.72;33.46;99824.06;7217605;40;20266;31
2023/06/23 15:16:34;;;;;;;2.95;2.28;;;;;;;29.10;32.72;99818.13;7192847;40;21368;31
2023/06/23 15:27:15;;;;;;;2.50;2.16;;;;;;;29.17;31.61;99807.62;7303473;39;20278;31
2023/06/23 15:32:50;;;;;;;2.36;2.08;;;;;;;29.41;31.80;99800.47;7289527;39;20275;31
2023/06/23 15:38:25;;;;;;;5.65;2.40;;;;;;;29.43;30.04;99814.94;7300286;39;20331;31
2023/06/23 15:44:02;;;;;;;7.86;2.36;;;;;;;29.51;31.05;99811.59;7316228;39;20256;31
2023/06/23 15:49:40;;;;;;;3.06;2.14;;;;;;;29.74;30.97;99817.75;7290872;39;20256;31
2023/06/23 15:55:15;;;;;;;2.58;2.35;;;;;;;29.67;30.53;99811.59;7230417;40;20254;31
2023/06/23 16:00:51;;;;;;;2.38;2.00;;;;;;;29.42;30.44;99818.81;7236726;40;20393;31
2023/06/23 16:06:26;;;;;;;2.82;2.23;;;;;;;29.30;30.28;99809.91;7206836;40;21345;31
2023/06/23 16:12:07;;;;;;;2.53;2.33;;;;;;;29.15;29.42;99808.97;7234051;40;20269;31
2023/06/23 16:17:43;;;;;;;3.08;2.12;;;;;;;29.32;30.38;99807.66;7298465;39;20276;31
2023/06/23 16:23:18;;;;;;;3.65;2.28;;;;;;;29.46;30.26;99805.19;7285523;39;20240;31
2023/06/23 16:28:53;;;;;;;3.55;2.30;;;;;;;29.44;31.18;99805.47;7278823;40;20264;31
2023/06/23 16:34:29;;;;;;;2.60;2.40;;;;;;;29.29;30.10;99808.22;7279125;39;20256;31
2023/06/23 16:39:49;;;;;;;3.95;3.00;;;;;;;29.37;31.28;99806.84;7288044;39;20433;31
2023/06/23 16:45:22;;;;;;;7.00;4.50;;;;;;;29.26;31.11;99811.53;7259959;40;20277;31
2023/06/23 16:50:56;;;;;;;7.28;5.53;;;;;;;29.03;31.12;99823.94;7239191;40;20274;31
2023/06/23 16:56:31;;;;;;;4.32;2.35;;;;;;;28.86;31.88;99828.88;7228083;40;20360;31
2023/06/23 17:02:06;;;;;;;2.60;2.40;;;;;;;28.76;31.84;99828.81;7258741;40;20257;31
2023/06/23 17:07:40;;;;;;;2.83;2.40;;;;;;;28.47;33.42;99820.03;7255521;40;20261;31
2023/06/23 17:13:15;;;;;;;4.87;2.43;;;;;;;28.38;32.19;99827.19;7291716;39;20257;31
2023/06/23 17:18:36;;;;;;;2.45;2.25;;;;;;;28.27;32.21;99835.69;7297512;39;20248;31
2023/06/23 17:24:11;;;;;;;2.85;2.30;;;;;;;28.08;34.12;99841.63;7260409;40;20284;31
2023/06/23 17:29:32;;;;;;;3.80;2.30;;;;;;;27.96;34.03;99845.69;7255586;40;20366;31
2023/06/23 17:35:07;;;;;;;2.37;2.17;;;;;;;27.94;34.83;99858.97;7249944;40;20326;31
2023/06/23 17:40:43;;;;;;;3.00;2.58;;;;;;;27.85;34.72;99858.63;7258834;40;20264;31
2023/06/23 17:46:18;;;;;;;2.45;2.20;;;;;;;27.79;33.66;99862.44;7197941;40;20261;31
2023/06/23 17:51:39;;;;;;;3.35;2.30;;;;;;;27.79;34.68;99865.22;7262950;39;20256;31
2023/06/23 17:57:14;;;;;;;2.40;2.03;;;;;;;27.62;33.28;99854.25;7279946;39;20249;31
2023/06/23 18:02:49;;;;;;;2.25;2.00;;;;;;;27.58;35.35;99855.87;7249449;40;20249;31
2023/06/23 18:08:24;;;;;;;2.35;2.15;;;;;;;27.54;35.28;99865.81;7218600;40;20274;31
2023/06/23 18:14:00;;;;;;;2.30;2.10;;;;;;;27.48;35.17;99860.44;7192235;40;21452;31
2023/06/23 18:24:25;;;;;;;4.60;2.25;;;;;;;27.42;34.50;99867.84;7190840;40;20363;31
2023/06/23 18:35:05;;;;;;;3.17;2.20;;;;;;;27.13;36.12;99855.31;7248273;40;20271;31
2023/06/23 18:45:31;;;;;;;2.50;2.30;;;;;;;27.08;36.36;99860.78;7319152;39;20296;31
2023/06/23 18:51:06;;;;;;;3.45;2.30;;;;;;;27.00;37.22;99862.09;7318777;39;20284;31
2023/06/23 18:56:42;;;;;;;3.93;2.20;;;;;;;26.84;38.58;99866.56;7235205;40;20500;31
2023/06/23 19:02:15;;;;;;;2.72;2.10;;;;;;;26.65;39.53;99870.72;7119577;40;21288;31
2023/06/23 19:07:52;;;;;;;2.50;2.30;;;;;;;26.47;40.09;99876.53;7218605;40;20337;31
2023/06/23 19:13:27;;;;;;;4.85;2.90;;;;;;;26.32;40.34;99876.31;7230012;40;20425;31
2023/06/23 19:18:47;;;;;;;4.20;3.00;;;;;;;26.09;40.48;99887.50;7214116;40;20274;31
2023/06/23 19:24:24;;;;;;;4.50;3.70;;;;;;;25.87;42.09;99888.22;7274279;39;20376;31
2023/06/23 19:35:04;;;;;;;3.08;2.78;;;;;;;25.50;42.35;99889.69;7239529;40;20336;31
2023/06/23 19:40:36;;;;;;;3.05;2.35;;;;;;;25.30;42.34;99892.91;7237305;40;20259;31
2023/06/23 19:46:11;;;;;;;2.74;2.42;;;;;;;25.14;42.21;99916.59;7230621;40;20358;31
2023/06/23 19:51:31;;;;;;;4.83;2.95;;;;;;;24.97;42.99;99923.94;7242380;40;21483;31
2023/06/23 19:57:08;;;;;;;3.55;2.40;;;;;;;24.77;42.95;99928.12;7208390;40;20241;31
2023/06/23 20:02:43;;;;;;;3.62;2.67;;;;;;;24.71;44.61;99938.19;7229679;40;20246;31
2023/06/23 20:08:03;;;;;;;3.66;2.80;;;;;;;24.55;44.89;99942.53;7226636;40;20337;31
2023/06/23 20:13:40;;;;;;;5.65;4.15;;;;;;;24.36;44.95;99949.22;7232436;40;20265;31
2023/06/23 20:19:00;;;;;;;5.83;3.80;;;;;;;24.27;45.28;99955.31;7220932;40;20374;31
2023/06/23 20:24:21;;;;;;;5.50;4.07;;;;;;;24.19;44.55;99954.59;7252458;40;20249;31
2023/06/23 20:29:57;;;;;;;5.12;4.43;;;;;;;23.86;46.44;99954.25;7272175;40;20304;31
2023/06/23 20:35:17;;;;;;;4.94;4.30;;;;;;;23.75;47.16;99964.13;7271917;40;20256;31
2023/06/23 20:40:51;;;;;;;5.47;4.12;;;;;;;23.61;46.48;99961.78;7279512;39;20243;31
2023/06/23 20:46:27;;;;;;;3.80;3.40;;;;;;;23.54;47.25;99966.53;7232520;40;20250;31
2023/06/23 20:51:45;;;;;;;4.10;3.70;;;;;;;23.46;47.50;99970.47;7270040;40;20315;31
2023/06/23 20:57:21;;;;;;;7.85;3.85;;;;;;;23.27;47.68;99963.25;7277086;40;20337;31
2023/06/23 21:02:57;;;;;;;7.03;3.93;;;;;;;23.19;47.67;99967.16;7275398;40;20457;31
2023/06/23 21:08:32;;;;;;;3.77;3.30;;;;;;;23.08;48.03;99970.66;7257116;40;20334;31
2023/06/23 21:13:52;;;;;;;5.13;3.63;;;;;;;23.00;48.55;99965.47;7240216;40;20353;31
2023/06/23 21:19:28;;;;;;;4.47;3.97;;;;;;;22.81;49.48;99963.78;7247783;40;20374;31
2023/06/23 21:24:48;;;;;;;4.10;3.65;;;;;;;22.63;49.24;99970.06;7188340;40;20278;31
2023/06/23 21:35:24;;;;;;;4.64;3.78;;;;;;;22.54;50.43;99965.91;7244541;40;20373;31
2023/06/23 21:40:56;;;;;;;6.65;4.57;;;;;;;22.43;50.08;99961.97;7236943;40;20290;31
2023/06/23 21:46:16;;;;;;;5.98;3.90;;;;;;;22.23;50.24;99961.31;7232808;40;20253;31
2023/06/23 21:51:52;;;;;;;5.20;4.70;;;;;;;22.21;50.43;99966.19;7241501;40;20237;31
2023/06/23 21:57:12;;;;;;;7.50;5.18;;;;;;;22.17;50.57;99973.19;7213931;40;20389;31
2023/06/23 22:02:47;;;;;;;5.07;4.57;;;;;;;22.05;51.40;99954.91;7231424;40;20272;31
2023/06/23 22:08:19;;;;;;;4.28;3.87;;;;;;;;;;7218787;40;20246;31
2023/06/23 22:13:40;;;;;;;3.90;3.50;;;;;;;21.61;51.96;99962.09;7217735;40;20250;31
2023/06/23 22:19:15;;;;;;;4.90;3.60;;;;;;;21.35;52.16;99964.97;7278687;39;20315;31
2023/06/23 22:24:51;;;;;;;3.70;3.25;;;;;;;21.44;51.84;99967.25;7256860;40;20246;31
2023/06/23 22:30:27;;;;;;;3.97;3.58;;;;;;;21.50;51.72;99973.78;7254807;40;20254;31
2023/06/23 22:35:47;;;;;;;4.87;3.83;;;;;;;21.36;52.61;99969.41;7261468;40;20272;31
2023/06/23 22:41:23;;;;;;;3.37;2.97;;;;;;;21.36;52.00;99980.38;7218146;40;20262;31
2023/06/23 22:52:02;;;;;;;3.64;3.14;;;;;;;21.40;51.66;99993.44;7201764;40;20360;31
2023/06/23 22:57:38;;;;;;;3.95;2.80;;;;;;;21.17;52.08;99997.75;7189168;40;21448;31
2023/06/23 23:03:13;;;;;;;4.10;3.20;;;;;;;20.90;53.10;100000.50;7186680;40;20394;31
2023/06/23 23:08:33;;;;;;;3.53;3.22;;;;;;;20.69;53.38;100012.56;7167807;40;20385;31
2023/06/23 23:14:07;;;;;;;4.57;3.47;;;;;;;20.64;52.67;100001.41;7197667;40;20285;31
2023/06/23 23:19:27;;;;;;;4.03;3.62;;;;;;;20.90;53.29;100002.41;7196720;40;20288;31
2023/06/23 23:25:04;;;;;;;3.60;3.30;;;;;;;20.99;52.75;100007.47;7183908;40;20246;31
2023/06/23 23:30:39;;;;;;;4.53;3.90;;;;;;;20.83;52.49;100005.19;7188472;40;20249;31
2023/06/23 23:36:15;;;;;;;4.35;3.78;;;;;;;20.60;53.31;100010.25;7221290;40;20378;31
2023/06/23 23:41:35;;;;;;;5.53;3.58;;;;;;;20.56;53.46;99993.41;7194176;40;20238;31
2023/06/23 23:47:12;;;;;;;4.55;3.55;;;;;;;20.60;53.27;99977.38;7218765;40;20245;31
2023/06/23 23:52:48;;;;;;;4.30;3.85;;;;;;;20.71;53.75;99979.50;7254597;40;20281;31
2023/06/23 23:58:08;;;;;;;4.10;3.70;;;;;;;20.55;53.71;99977.16;7295145;39;20257;31
